createdAt,value
2019-02-18T00:00:57.657Z,2.58
2019-02-18T00:03:24.740Z,2.55
2019-02-18T00:05:51.478Z,2.46
2019-02-18T00:08:18.201Z,2.45
2019-02-18T00:10:45.267Z,2.39
2019-02-18T00:13:25.127Z,2.36
2019-02-18T00:15:51.913Z,2.32
2019-02-18T00:18:18.639Z,2.30
2019-02-18T00:20:45.755Z,2.27
2019-02-18T00:23:12.533Z,2.23
2019-02-18T00:25:39.548Z,2.21
2019-02-18T00:28:06.281Z,2.15
2019-02-18T00:30:33.065Z,2.10
2019-02-18T00:32:59.803Z,2.06
2019-02-18T00:35:27.153Z,1.90
2019-02-18T00:37:54.462Z,2.00
2019-02-18T00:40:21.206Z,2.04
2019-02-18T00:42:47.833Z,2.01
2019-02-18T00:45:14.988Z,2.20
2019-02-18T00:47:41.708Z,2.19
2019-02-18T00:50:09.127Z,2.16
2019-02-18T00:52:36.017Z,2.20
2019-02-18T00:55:02.779Z,2.14
2019-02-18T00:57:29.757Z,2.05
2019-02-18T00:59:56.863Z,2.21
2019-02-18T01:02:23.587Z,2.23
2019-02-18T01:04:50.305Z,2.27
2019-02-18T01:07:16.997Z,2.23
2019-02-18T01:09:43.745Z,2.17
2019-02-18T01:12:10.727Z,2.12
2019-02-18T01:14:37.977Z,2.08
2019-02-18T01:17:04.733Z,2.06
2019-02-18T01:19:31.362Z,2.12
2019-02-18T01:21:58.434Z,2.00
2019-02-18T01:24:25.328Z,1.97
2019-02-18T01:26:52.517Z,1.94
2019-02-18T01:29:19.204Z,1.88
2019-02-18T01:31:45.831Z,1.84
2019-02-18T01:34:12.459Z,1.80
2019-02-18T01:36:39.240Z,1.78
2019-02-18T01:39:06.377Z,1.79
2019-02-18T01:41:33.096Z,1.80
2019-02-18T01:43:59.796Z,1.78
2019-02-18T01:46:26.418Z,1.78
2019-02-18T01:48:53.293Z,1.70
2019-02-18T01:51:20.416Z,1.69
2019-02-18T01:53:47.111Z,1.65
2019-02-18T01:56:13.844Z,1.63
2019-02-18T01:58:41.271Z,1.63
2019-02-18T02:01:08.102Z,1.58
2019-02-18T02:03:34.741Z,1.53
2019-02-18T02:06:01.611Z,1.46
2019-02-18T02:08:28.620Z,1.41
2019-02-18T02:10:55.437Z,1.38
2019-02-18T02:13:41.736Z,1.34
2019-02-18T02:16:21.373Z,1.39
2019-02-18T02:18:48.251Z,1.37
2019-02-18T02:21:14.968Z,1.35
2019-02-18T02:23:41.694Z,1.43
2019-02-18T02:26:08.598Z,1.39
2019-02-18T02:28:35.502Z,1.33
2019-02-18T02:31:02.281Z,1.33
2019-02-18T02:33:29.139Z,1.28
2019-02-18T02:35:55.862Z,1.21
2019-02-18T02:38:22.594Z,1.15
2019-02-18T02:40:49.441Z,1.11
2019-02-18T02:43:16.159Z,1.05
2019-02-18T02:45:42.781Z,0.99
2019-02-18T02:48:09.655Z,0.98
2019-02-18T02:50:36.990Z,0.94
2019-02-18T02:53:03.758Z,0.90
2019-02-18T02:55:30.544Z,0.91
2019-02-18T02:57:57.458Z,0.87
2019-02-18T03:00:24.097Z,0.84
2019-02-18T03:02:50.808Z,0.79
2019-02-18T03:05:17.617Z,0.79
2019-02-18T03:07:44.768Z,0.69
2019-02-18T03:10:11.553Z,0.67
2019-02-18T03:12:38.335Z,0.68
2019-02-18T03:15:05.255Z,0.59
2019-02-18T03:17:32.476Z,0.57
2019-02-18T03:19:59.520Z,0.54
2019-02-18T03:22:26.667Z,0.52
2019-02-18T03:25:14.210Z,0.47
2019-02-18T03:27:40.986Z,0.41
2019-02-18T03:30:46.944Z,0.40
2019-02-18T03:33:16.242Z,0.33
2019-02-18T03:35:42.976Z,0.33
2019-02-18T03:38:09.671Z,0.32
2019-02-18T03:40:36.505Z,0.37
2019-02-18T03:43:03.338Z,0.37
2019-02-18T03:45:30.426Z,0.32
2019-02-18T03:47:57.146Z,0.29
2019-02-18T03:50:24.116Z,0.20
2019-02-18T03:52:50.922Z,0.18
2019-02-18T03:55:17.563Z,0.14
2019-02-18T03:57:44.940Z,0.13
2019-02-18T04:00:52.768Z,0.13
2019-02-18T04:03:19.407Z,0.09
2019-02-18T04:05:46.193Z,0.10
2019-02-18T04:08:13.187Z,0.07
2019-02-18T04:10:40.170Z,0.10
2019-02-18T04:13:06.916Z,0.09
2019-02-18T04:15:33.795Z,0.06
2019-02-18T04:18:00.901Z,0.09
2019-02-18T04:20:27.645Z,0.06
2019-02-18T04:22:54.479Z,0.05
2019-02-18T04:25:21.604Z,0.08
2019-02-18T04:27:48.337Z,0.12
2019-02-18T04:30:15.368Z,0.18
2019-02-18T04:32:42.026Z,0.18
2019-02-18T04:35:09.180Z,0.13
2019-02-18T04:37:36.182Z,0.13
2019-02-18T04:40:03.037Z,0.10
2019-02-18T04:42:29.933Z,0.12
2019-02-18T04:44:57.152Z,0.10
2019-02-18T04:47:23.777Z,0.11
2019-02-18T04:49:50.509Z,0.13
2019-02-18T04:52:17.306Z,0.15
2019-02-18T04:54:43.924Z,0.11
2019-02-18T04:57:10.560Z,0.15
2019-02-18T04:59:37.333Z,0.13
2019-02-18T05:02:04.632Z,0.14
2019-02-18T05:04:56.361Z,0.14
2019-02-18T05:07:23.553Z,0.11
2019-02-18T05:09:50.202Z,0.11
2019-02-18T05:12:17.393Z,0.13
2019-02-18T05:14:44.409Z,0.19
2019-02-18T05:17:11.341Z,0.19
2019-02-18T05:19:38.087Z,0.19
2019-02-18T05:22:04.811Z,0.13
2019-02-18T05:24:31.826Z,0.10
2019-02-18T05:26:58.656Z,0.14
2019-02-18T05:29:25.290Z,0.11
2019-02-18T05:31:52.273Z,0.11
2019-02-18T05:34:19.075Z,0.11
2019-02-18T05:36:46.112Z,0.14
2019-02-18T05:39:18.178Z,0.14
2019-02-18T05:41:41.693Z,0.13
2019-02-18T05:44:08.571Z,0.22
2019-02-18T05:46:35.488Z,0.22
2019-02-18T05:49:02.179Z,0.24
2019-02-18T05:51:29.088Z,0.25
2019-02-18T05:53:55.762Z,0.24
2019-02-18T05:56:22.876Z,0.23
2019-02-18T05:58:50.020Z,0.25
2019-02-18T06:04:05.943Z,0.27
2019-02-18T06:06:32.667Z,0.26
2019-02-18T06:08:59.771Z,0.50
2019-02-18T06:11:26.812Z,0.58
2019-02-18T06:13:53.441Z,0.54
2019-02-18T06:16:20.420Z,0.50
2019-02-18T06:18:47.094Z,0.46
2019-02-18T06:21:26.555Z,0.44
2019-02-18T06:23:53.736Z,0.44
2019-02-18T06:26:20.352Z,0.43
2019-02-18T06:28:47.408Z,0.44
2019-02-18T06:31:14.179Z,0.45
2019-02-18T06:33:41.031Z,0.44
2019-02-18T06:36:07.697Z,0.52
2019-02-18T06:38:34.798Z,0.57
2019-02-18T06:41:01.522Z,0.54
2019-02-18T06:43:28.719Z,0.51
2019-02-18T06:46:15.162Z,0.54
2019-02-18T06:49:01.414Z,0.54
2019-02-18T06:51:28.536Z,0.55
2019-02-18T06:53:55.565Z,0.56
2019-02-18T06:59:22.762Z,0.63
2019-02-18T07:02:09.727Z,0.70
2019-02-18T07:04:56.253Z,0.74
2019-02-18T07:07:42.752Z,0.82
2019-02-18T07:10:29.216Z,0.93
2019-02-18T07:12:56.650Z,1.20
2019-02-18T07:15:23.391Z,1.39
2019-02-18T07:17:50.347Z,1.50
2019-02-18T07:20:17.284Z,1.68
2019-02-18T07:22:44.524Z,1.89
2019-02-18T07:25:11.440Z,1.93
2019-02-18T07:27:38.364Z,2.09
2019-02-18T07:30:07.691Z,2.22
2019-02-18T07:32:34.352Z,2.33
2019-02-18T07:35:00.992Z,2.43
2019-02-18T07:37:28.354Z,2.63
2019-02-18T07:40:01.801Z,2.90
2019-02-18T07:42:24.290Z,3.14
2019-02-18T07:44:51.357Z,3.33
2019-02-18T07:47:18.182Z,3.51
2019-02-18T07:50:05.036Z,3.64
2019-02-18T07:52:31.914Z,3.84
2019-02-18T07:54:58.539Z,4.03
2019-02-18T07:57:25.261Z,4.18
2019-02-18T07:59:52.092Z,4.24
2019-02-18T08:02:19.745Z,4.45
2019-02-18T08:04:46.474Z,4.60
2019-02-18T08:07:14.272Z,4.75
2019-02-18T08:09:41.415Z,4.92
2019-02-18T08:12:27.738Z,5.05
2019-02-18T08:14:54.460Z,5.31
2019-02-18T08:17:21.497Z,5.61
2019-02-18T08:19:48.421Z,5.68
2019-02-18T08:22:15.211Z,5.96
2019-02-18T08:24:55.566Z,6.07
2019-02-18T08:27:22.288Z,6.29
2019-02-18T08:29:48.901Z,6.42
2019-02-18T08:32:15.592Z,6.63
2019-02-18T08:34:42.482Z,6.88
2019-02-18T08:37:09.216Z,7.01
2019-02-18T08:39:36.297Z,7.06
2019-02-18T08:42:03.015Z,7.17
2019-02-18T08:44:29.882Z,7.25
2019-02-18T08:46:59.145Z,7.31
2019-02-18T08:49:25.881Z,7.34
2019-02-18T08:51:52.655Z,7.38
2019-02-18T08:54:19.726Z,7.44
2019-02-18T08:56:47.181Z,7.32
2019-02-18T08:59:13.964Z,7.48
2019-02-18T09:01:40.775Z,7.57
2019-02-18T09:04:08.343Z,7.67
2019-02-18T09:06:35.072Z,7.72
2019-02-18T09:09:02.012Z,7.76
2019-02-18T09:11:28.748Z,7.74
2019-02-18T09:13:55.486Z,7.60
2019-02-18T09:16:22.579Z,7.67
2019-02-18T09:18:49.315Z,7.71
2019-02-18T09:21:15.934Z,7.76
2019-02-18T09:26:23.001Z,7.99
2019-02-18T09:28:49.725Z,8.09
2019-02-18T09:34:05.367Z,8.44
2019-02-18T09:36:32.092Z,8.54
2019-02-18T09:38:58.855Z,8.74
2019-02-18T09:41:25.655Z,8.86
2019-02-18T09:43:52.284Z,9.11
2019-02-18T09:46:19.016Z,9.30
2019-02-18T09:48:46.388Z,9.57
2019-02-18T09:51:14.348Z,9.85
2019-02-18T09:53:41.070Z,10.11
2019-02-18T09:56:07.871Z,10.44
2019-02-18T09:58:34.611Z,10.79
2019-02-18T10:01:01.326Z,10.95
2019-02-18T10:03:31.893Z,11.44
2019-02-18T10:05:56.758Z,11.61
2019-02-18T10:08:23.481Z,11.84
2019-02-18T10:10:55.993Z,11.99
2019-02-18T10:13:18.890Z,12.16
2019-02-18T10:15:45.524Z,12.20
2019-02-18T10:18:12.289Z,12.34
2019-02-18T10:20:39.209Z,12.56
2019-02-18T10:23:05.966Z,12.61
2019-02-18T10:25:32.715Z,12.65
2019-02-18T10:28:12.087Z,12.91
2019-02-18T10:30:38.909Z,12.82
2019-02-18T10:33:05.849Z,12.99
2019-02-18T10:35:33.086Z,12.94
2019-02-18T10:37:59.870Z,12.92
2019-02-18T10:40:26.639Z,13.17
2019-02-18T10:42:53.997Z,13.35
2019-02-18T10:45:20.908Z,13.41
2019-02-18T10:47:47.529Z,13.43
2019-02-18T10:50:14.381Z,13.52
2019-02-18T10:52:41.333Z,13.43
2019-02-18T10:55:09.222Z,13.73
2019-02-18T10:57:38.315Z,13.78
2019-02-18T11:00:08.464Z,14.10
2019-02-18T11:02:35.577Z,14.03
2019-02-18T11:05:03.688Z,14.10
2019-02-18T11:07:31.324Z,14.27
2019-02-18T11:09:58.418Z,14.28
2019-02-18T11:12:25.533Z,14.17
2019-02-18T11:14:52.759Z,14.18
2019-02-18T11:17:20.466Z,13.94
2019-02-18T11:19:47.583Z,13.91
2019-02-18T11:22:15.106Z,13.84
2019-02-18T11:24:42.637Z,13.66
2019-02-18T11:27:10.082Z,13.46
2019-02-18T11:29:37.711Z,13.72
2019-02-18T11:32:04.919Z,13.75
2019-02-18T11:34:32.085Z,13.65
2019-02-18T11:36:59.285Z,13.67
2019-02-18T11:39:27.514Z,13.59
2019-02-18T11:41:55.222Z,13.57
2019-02-18T11:44:22.448Z,13.75
2019-02-18T11:47:10.875Z,13.73
2019-02-18T11:49:37.669Z,13.85
2019-02-18T11:52:04.883Z,14.25
2019-02-18T11:54:51.457Z,14.40
2019-02-18T11:57:18.678Z,14.46
2019-02-18T11:59:45.580Z,14.48
2019-02-18T12:02:14.272Z,14.72
2019-02-18T12:04:41.141Z,15.10
2019-02-18T12:07:07.895Z,15.09
2019-02-18T12:09:34.695Z,15.30
2019-02-18T12:12:21.273Z,15.52
2019-02-18T12:14:48.416Z,15.68
2019-02-18T12:17:20.533Z,15.70
2019-02-18T12:20:07.061Z,15.71
2019-02-18T12:22:34.631Z,16.04
2019-02-18T12:25:01.741Z,16.28
2019-02-18T12:27:29.325Z,16.21
2019-02-18T12:29:58.346Z,16.30
2019-02-18T12:32:25.520Z,16.54
2019-02-18T12:34:52.380Z,16.80
2019-02-18T12:37:19.374Z,16.86
2019-02-18T12:39:46.213Z,16.99
2019-02-18T12:42:13.286Z,16.97
2019-02-18T12:44:39.908Z,16.80
2019-02-18T12:47:08.551Z,17.03
2019-02-18T12:49:35.416Z,16.65
2019-02-18T12:52:02.280Z,16.53
2019-02-18T12:54:29.044Z,16.02
2019-02-18T12:56:55.893Z,15.85
2019-02-18T12:59:22.813Z,15.76
2019-02-18T13:01:49.549Z,15.57
2019-02-18T13:04:16.231Z,15.53
2019-02-18T13:06:42.955Z,15.23
2019-02-18T13:09:10.268Z,14.99
2019-02-18T13:11:37.362Z,14.97
2019-02-18T13:14:04.097Z,14.73
2019-02-18T13:16:31.253Z,14.60
2019-02-18T13:18:58.155Z,14.36
2019-02-18T13:21:25.166Z,14.28
2019-02-18T13:23:52.640Z,14.40
2019-02-18T13:26:19.517Z,14.27
2019-02-18T13:28:46.246Z,14.39
2019-02-18T13:31:13.280Z,14.25
2019-02-18T13:33:52.443Z,14.20
2019-02-18T13:36:19.167Z,14.14
2019-02-18T13:38:45.891Z,14.28
2019-02-18T13:41:13.469Z,14.30
2019-02-18T13:43:40.103Z,14.28
2019-02-18T13:46:07.133Z,14.21
2019-02-18T13:48:34.097Z,13.82
2019-02-18T13:51:00.825Z,13.84
2019-02-18T13:53:27.557Z,13.80
2019-02-18T13:55:54.709Z,13.97
2019-02-18T13:58:21.540Z,13.98
2019-02-18T14:00:48.174Z,13.86
2019-02-18T14:03:14.862Z,13.95
2019-02-18T14:05:41.833Z,13.70
2019-02-18T14:08:08.462Z,13.92
2019-02-18T14:10:35.279Z,13.86
2019-02-18T14:13:01.998Z,13.90
2019-02-18T14:15:28.740Z,14.20
2019-02-18T14:17:55.871Z,14.21
2019-02-18T14:20:22.619Z,14.25
2019-02-18T14:22:49.737Z,14.23
2019-02-18T14:25:16.948Z,14.26
2019-02-18T14:27:44.210Z,14.20
2019-02-18T14:30:12.338Z,14.14
2019-02-18T14:32:39.536Z,13.89
2019-02-18T14:35:18.886Z,14.00
2019-02-18T14:37:46.312Z,14.22
2019-02-18T14:40:34.551Z,14.22
2019-02-18T14:43:01.676Z,14.26
2019-02-18T14:45:28.956Z,14.00
2019-02-18T14:47:55.931Z,14.06
2019-02-18T14:50:22.771Z,13.95
2019-02-18T14:52:50.391Z,14.05
2019-02-18T14:55:17.643Z,13.95
2019-02-18T14:58:04.067Z,14.00
2019-02-18T15:00:30.833Z,14.05
2019-02-18T15:02:57.604Z,14.03
2019-02-18T15:05:25.436Z,13.97
2019-02-18T15:07:52.450Z,13.99
2019-02-18T15:10:19.455Z,13.74
2019-02-18T15:12:46.235Z,13.55
2019-02-18T15:15:13.249Z,13.33
2019-02-18T15:17:40.117Z,13.26
2019-02-18T15:20:07.140Z,13.40
2019-02-18T15:22:35.766Z,13.19
2019-02-18T15:25:02.608Z,12.91
2019-02-18T15:27:29.389Z,12.71
2019-02-18T15:29:56.152Z,12.49
2019-02-18T15:32:22.868Z,12.36
2019-02-18T15:34:50.131Z,12.33
2019-02-18T15:37:29.649Z,12.31
2019-02-18T15:39:56.830Z,12.08
2019-02-18T15:42:23.549Z,11.92
2019-02-18T15:44:50.265Z,11.75
2019-02-18T15:47:17.181Z,11.58
2019-02-18T15:49:44.100Z,11.45
2019-02-18T15:52:11.452Z,11.32
2019-02-18T15:54:38.237Z,11.32
2019-02-18T15:57:05.161Z,11.14
2019-02-18T15:59:31.942Z,10.99
2019-02-18T16:01:58.755Z,10.77
2019-02-18T16:04:25.612Z,10.57
2019-02-18T16:06:52.542Z,10.37
2019-02-18T16:09:19.480Z,10.25
2019-02-18T16:11:46.691Z,10.07
2019-02-18T16:14:13.874Z,9.91
2019-02-18T16:16:40.798Z,9.72
2019-02-18T16:19:07.608Z,9.55
2019-02-18T16:21:34.508Z,9.29
2019-02-18T16:24:01.195Z,9.12
2019-02-18T16:26:27.949Z,8.92
2019-02-18T16:28:54.979Z,8.75
2019-02-18T16:31:21.771Z,8.60
2019-02-18T16:33:49.815Z,8.45
2019-02-18T16:36:16.856Z,8.28
2019-02-18T16:38:43.862Z,8.14
2019-02-18T16:41:11.066Z,8.03
2019-02-18T16:43:39.776Z,7.90
2019-02-18T16:46:06.628Z,7.84
2019-02-18T16:48:33.570Z,7.74
2019-02-18T16:51:00.472Z,7.66
2019-02-18T16:53:27.150Z,7.56
2019-02-18T16:55:54.111Z,7.45
2019-02-18T16:58:20.834Z,7.34
2019-02-18T17:00:47.896Z,7.22
2019-02-18T17:03:15.011Z,7.13
2019-02-18T17:05:41.993Z,7.10
2019-02-18T17:08:11.398Z,6.96
2019-02-18T17:10:39.454Z,6.89
2019-02-18T17:13:08.410Z,6.74
2019-02-18T17:15:35.594Z,6.64
2019-02-18T17:18:02.321Z,6.53
2019-02-18T17:20:29.570Z,6.42
2019-02-18T17:22:56.437Z,6.34
2019-02-18T17:25:25.347Z,6.27
2019-02-18T17:27:52.191Z,6.20
2019-02-18T17:30:19.241Z,6.15
2019-02-18T17:32:45.984Z,6.09
2019-02-18T17:35:12.742Z,6.03
2019-02-18T17:37:39.541Z,5.97
2019-02-18T17:40:08.126Z,5.90
2019-02-18T17:42:54.821Z,5.81
2019-02-18T17:45:21.896Z,5.78
2019-02-18T17:47:48.997Z,5.72
2019-02-18T17:50:16.436Z,5.64
2019-02-18T17:52:44.408Z,5.59
2019-02-18T17:55:11.928Z,5.53
2019-02-18T17:57:39.364Z,5.44
2019-02-18T18:00:09.200Z,5.40
2019-02-18T18:02:36.750Z,5.37
2019-02-18T18:05:44.724Z,5.35
2019-02-18T18:08:11.525Z,5.29
2019-02-18T18:10:38.578Z,5.19
2019-02-18T18:13:05.651Z,5.13
2019-02-18T18:15:32.276Z,5.06
2019-02-18T18:17:59.567Z,5.01
2019-02-18T18:20:26.427Z,4.97
2019-02-18T18:22:55.347Z,4.93
2019-02-18T18:25:22.437Z,4.90
2019-02-18T18:27:51.015Z,4.86
2019-02-18T18:30:17.971Z,4.79
2019-02-18T18:32:45.319Z,4.72
2019-02-18T18:35:13.519Z,4.68
2019-02-18T18:37:41.391Z,4.64
2019-02-18T18:40:10.031Z,4.59
2019-02-18T18:42:56.395Z,4.52
2019-02-18T18:45:23.208Z,4.50
2019-02-18T18:48:09.581Z,4.45
2019-02-18T18:50:36.308Z,4.44
2019-02-18T18:53:03.423Z,4.36
2019-02-18T18:55:30.313Z,4.31
2019-02-18T18:57:57.190Z,4.29
2019-02-18T19:00:43.856Z,4.24
2019-02-18T19:03:10.589Z,4.19
2019-02-18T19:05:37.689Z,4.14
2019-02-18T19:08:04.774Z,4.07
2019-02-18T19:10:51.378Z,4.05
2019-02-18T19:13:18.819Z,4.01
2019-02-18T19:15:49.632Z,3.97
2019-02-18T19:18:14.626Z,3.95
2019-02-18T19:21:01.018Z,3.95
2019-02-18T19:23:27.769Z,3.91
2019-02-18T19:25:54.807Z,3.88
2019-02-18T19:28:41.246Z,3.89
2019-02-18T19:31:08.658Z,3.89
2019-02-18T19:33:54.966Z,3.85
2019-02-18T19:36:22.151Z,3.81
2019-02-18T19:38:49.280Z,3.77
2019-02-18T19:41:16.467Z,3.76
2019-02-18T19:43:56.785Z,3.77
2019-02-18T19:46:24.245Z,3.78
2019-02-18T19:48:51.341Z,3.71
2019-02-18T19:51:18.118Z,3.68
2019-02-18T19:53:44.918Z,3.63
2019-02-18T19:56:12.650Z,3.66
2019-02-18T19:58:39.492Z,3.63
2019-02-18T20:01:06.845Z,3.71
2019-02-18T20:03:33.894Z,3.65
2019-02-18T20:06:01.222Z,3.63
2019-02-18T20:08:28.028Z,3.53
2019-02-18T20:10:55.099Z,3.45
2019-02-18T20:13:21.856Z,3.43
2019-02-18T20:15:48.659Z,3.39
2019-02-18T20:18:15.704Z,3.37
2019-02-18T20:20:42.565Z,3.38
2019-02-18T20:23:11.834Z,3.47
2019-02-18T20:25:39.265Z,3.38
2019-02-18T20:28:06.204Z,3.32
2019-02-18T20:30:33.282Z,3.29
2019-02-18T20:33:00.126Z,3.26
2019-02-18T20:35:27.258Z,3.22
2019-02-18T20:37:54.894Z,3.23
2019-02-18T20:40:22.103Z,3.28
2019-02-18T20:42:48.916Z,3.26
2019-02-18T20:45:28.752Z,3.24
2019-02-18T20:47:55.909Z,3.20
2019-02-18T20:50:23.362Z,3.14
2019-02-18T20:52:50.723Z,3.14
2019-02-18T20:55:19.203Z,3.09
2019-02-18T20:57:46.422Z,3.04
2019-02-18T21:00:15.997Z,3.00
2019-02-18T21:02:44.067Z,2.95
2019-02-18T21:05:11.190Z,2.93
2019-02-18T21:07:38.374Z,2.91
2019-02-18T21:10:05.743Z,2.91
2019-02-18T21:12:32.907Z,2.98
2019-02-18T21:15:19.997Z,3.05
2019-02-18T21:17:47.559Z,3.14
2019-02-18T21:20:14.807Z,3.10
2019-02-18T21:22:42.353Z,3.05
2019-02-18T21:25:09.588Z,3.07
2019-02-18T21:27:44.076Z,2.97
2019-02-18T21:30:11.273Z,2.91
2019-02-18T21:32:39.988Z,2.83
2019-02-18T21:35:07.207Z,2.82
2019-02-18T21:37:33.874Z,2.77
2019-02-18T21:40:01.046Z,2.68
2019-02-18T21:42:27.764Z,2.60
2019-02-18T21:44:55.021Z,2.56
2019-02-18T21:47:22.207Z,2.54
2019-02-18T21:50:11.040Z,2.52
2019-02-18T21:52:38.107Z,2.52
2019-02-18T21:55:46.367Z,2.61
2019-02-18T21:58:14.704Z,2.50
2019-02-18T22:00:41.940Z,2.44
2019-02-18T22:03:08.659Z,2.38
2019-02-18T22:05:35.327Z,2.36
2019-02-18T22:08:21.759Z,2.31
2019-02-18T22:10:48.521Z,2.28
2019-02-18T22:13:17.183Z,2.26
2019-02-18T22:15:44.409Z,2.20
2019-02-18T22:18:11.331Z,2.20
2019-02-18T22:20:38.503Z,2.15
2019-02-18T22:23:05.638Z,2.11
2019-02-18T22:25:32.617Z,2.09
2019-02-18T22:27:59.659Z,2.07
2019-02-18T22:30:26.800Z,2.05
2019-02-18T22:32:55.469Z,2.05
2019-02-18T22:35:22.235Z,2.06
2019-02-18T22:37:48.957Z,2.03
2019-02-18T22:40:15.716Z,1.97
2019-02-18T22:43:02.154Z,1.96
2019-02-18T22:45:29.555Z,1.94
2019-02-18T22:47:57.417Z,1.95
2019-02-18T22:50:43.877Z,1.91
2019-02-18T22:53:10.959Z,1.85
2019-02-18T22:55:38.123Z,1.81
2019-02-18T22:58:05.125Z,1.85
2019-02-18T23:01:17.064Z,1.87
2019-02-18T23:03:44.308Z,1.85
2019-02-18T23:06:11.103Z,1.79
2019-02-18T23:08:39.767Z,1.76
2019-02-18T23:11:06.721Z,1.72
2019-02-18T23:13:33.606Z,1.76
2019-02-18T23:16:00.354Z,1.74
2019-02-18T23:18:27.295Z,1.81
2019-02-18T23:20:54.289Z,1.78
2019-02-18T23:24:02.452Z,1.75
2019-02-18T23:26:29.121Z,1.70
2019-02-18T23:28:55.866Z,1.88
2019-02-18T23:31:22.671Z,1.76
2019-02-18T23:33:49.602Z,1.70
2019-02-18T23:36:16.369Z,1.74
2019-02-18T23:38:43.258Z,1.69
2019-02-18T23:41:29.929Z,1.74
2019-02-18T23:43:56.748Z,1.71
2019-02-18T23:46:23.814Z,1.68
2019-02-18T23:49:03.070Z,1.67
2019-02-18T23:51:29.851Z,1.60
2019-02-18T23:53:56.999Z,1.60
2019-02-18T23:56:43.845Z,1.60
2019-02-18T23:59:10.625Z,1.58
